Terminal Aerodrome Forecast
Issued by NWS

Home | Current Version | Previous Version | Text Only | Print | Product List | Glossary On
Versions: 1 2 3 4 5 6 7 8 9 10 11 12 13 14 15 16 17 18 19
000
FTUS43 KEAX 192300
TAFMKC
TAF
KMKC 192321Z 2000/2024 23004KT 5SM BR OVC012
     FM200200 VRB03KT 3SM BR OVC008
     FM200500 VRB03KT 2SM BR OVC005
     FM201600 18007KT 4SM BR OVC008=

USA.gov is the U.S. government's official web portal to all federal, state and local government web resources and services.